sensor_id;sensor_type;location;lat;lon;timestamp;pressure;altitude;pressure_sealevel;temperature;humidity
77086;BME280;66014;53.134;18.006;2023-05-24T00:00:19;100651.52;;;17.82;61.73
77086;BME280;66014;53.134;18.006;2023-05-24T00:03:07;100647.27;;;17.80;61.79
77086;BME280;66014;53.134;18.006;2023-05-24T00:05:34;100648.37;;;17.78;61.79
77086;BME280;66014;53.134;18.006;2023-05-24T00:08:06;100649.76;;;17.76;61.78
77086;BME280;66014;53.134;18.006;2023-05-24T00:10:32;100649.67;;;17.72;61.71
77086;BME280;66014;53.134;18.006;2023-05-24T00:12:59;100647.96;;;17.68;61.83
77086;BME280;66014;53.134;18.006;2023-05-24T00:15:25;100650.18;;;17.63;61.93
77086;BME280;66014;53.134;18.006;2023-05-24T00:17:52;100648.17;;;17.57;61.87
77086;BME280;66014;53.134;18.006;2023-05-24T00:20:18;100646.94;;;17.52;61.81
77086;BME280;66014;53.134;18.006;2023-05-24T00:22:45;100654.20;;;17.49;61.76
77086;BME280;66014;53.134;18.006;2023-05-24T00:25:12;100651.39;;;17.45;61.88
77086;BME280;66014;53.134;18.006;2023-05-24T00:27:39;100657.38;;;17.42;61.74
77086;BME280;66014;53.134;18.006;2023-05-24T00:30:07;100656.66;;;17.39;61.77
77086;BME280;66014;53.134;18.006;2023-05-24T00:32:34;100658.84;;;17.33;61.90
77086;BME280;66014;53.134;18.006;2023-05-24T00:35:00;100650.04;;;17.27;61.75
77086;BME280;66014;53.134;18.006;2023-05-24T00:37:27;100650.16;;;17.23;61.68
77086;BME280;66014;53.134;18.006;2023-05-24T00:39:55;100644.63;;;17.21;61.68
77086;BME280;66014;53.134;18.006;2023-05-24T00:42:21;100643.21;;;17.21;61.61
77086;BME280;66014;53.134;18.006;2023-05-24T00:44:48;100641.79;;;17.19;61.49
77086;BME280;66014;53.134;18.006;2023-05-24T00:47:15;100644.85;;;17.15;61.50
77086;BME280;66014;53.134;18.006;2023-05-24T00:49:41;100648.60;;;17.12;61.69
77086;BME280;66014;53.134;18.006;2023-05-24T00:52:08;100650.88;;;17.06;61.74
77086;BME280;66014;53.134;18.006;2023-05-24T00:54:35;100657.49;;;17.01;61.74
77086;BME280;66014;53.134;18.006;2023-05-24T00:57:02;100657.73;;;16.98;61.70
77086;BME280;66014;53.134;18.006;2023-05-24T00:59:29;100657.42;;;16.95;61.68
77086;BME280;66014;53.134;18.006;2023-05-24T01:01:56;100657.70;;;16.91;61.75
77086;BME280;66014;53.134;18.006;2023-05-24T01:04:24;100660.52;;;16.87;61.79
77086;BME280;66014;53.134;18.006;2023-05-24T01:10:07;100664.56;;;16.78;61.77
77086;BME280;66014;53.134;18.006;2023-05-24T01:12:49;100672.39;;;16.77;61.72
77086;BME280;66014;53.134;18.006;2023-05-24T01:15:56;100677.39;;;16.78;61.73
77086;BME280;66014;53.134;18.006;2023-05-24T01:18:32;100679.83;;;16.77;61.70
77086;BME280;66014;53.134;18.006;2023-05-24T01:21:47;100678.06;;;16.74;61.72
77086;BME280;66014;53.134;18.006;2023-05-24T01:24:17;100681.36;;;16.72;61.73
77086;BME280;66014;53.134;18.006;2023-05-24T01:29:23;100678.11;;;16.67;61.84
77086;BME280;66014;53.134;18.006;2023-05-24T01:31:51;100679.40;;;16.66;61.85
77086;BME280;66014;53.134;18.006;2023-05-24T01:34:20;100683.26;;;16.64;61.93
77086;BME280;66014;53.134;18.006;2023-05-24T01:36:47;100683.40;;;16.60;61.94
77086;BME280;66014;53.134;18.006;2023-05-24T01:39:13;100687.22;;;16.58;62.10
77086;BME280;66014;53.134;18.006;2023-05-24T01:44:35;100686.48;;;16.48;62.52
77086;BME280;66014;53.134;18.006;2023-05-24T01:47:36;100686.21;;;16.43;62.59
77086;BME280;66014;53.134;18.006;2023-05-24T01:52:43;100694.81;;;16.37;62.86
77086;BME280;66014;53.134;18.006;2023-05-24T01:55:13;100696.31;;;16.34;62.94
77086;BME280;66014;53.134;18.006;2023-05-24T01:57:42;100698.52;;;16.28;63.21
77086;BME280;66014;53.134;18.006;2023-05-24T02:00:11;100699.95;;;16.23;63.15
77086;BME280;66014;53.134;18.006;2023-05-24T02:02:39;100700.55;;;16.20;63.09
77086;BME280;66014;53.134;18.006;2023-05-24T02:05:06;100700.80;;;16.19;63.14
77086;BME280;66014;53.134;18.006;2023-05-24T02:07:33;100704.14;;;16.18;63.08
77086;BME280;66014;53.134;18.006;2023-05-24T02:10:00;100706.09;;;16.17;63.14
77086;BME280;66014;53.134;18.006;2023-05-24T02:12:26;100708.48;;;16.16;63.12
77086;BME280;66014;53.134;18.006;2023-05-24T02:14:53;100711.84;;;16.17;62.97
77086;BME280;66014;53.134;18.006;2023-05-24T02:17:19;100714.02;;;16.17;62.92
77086;BME280;66014;53.134;18.006;2023-05-24T02:19:46;100715.13;;;16.17;63.04
77086;BME280;66014;53.134;18.006;2023-05-24T02:22:12;100715.79;;;16.18;63.07
77086;BME280;66014;53.134;18.006;2023-05-24T02:24:39;100718.53;;;16.16;63.07
77086;BME280;66014;53.134;18.006;2023-05-24T02:27:07;100719.96;;;16.16;63.17
77086;BME280;66014;53.134;18.006;2023-05-24T02:29:33;100719.36;;;16.15;63.02
77086;BME280;66014;53.134;18.006;2023-05-24T02:32:00;100721.49;;;16.17;62.95
77086;BME280;66014;53.134;18.006;2023-05-24T02:34:27;100722.75;;;16.15;62.89
77086;BME280;66014;53.134;18.006;2023-05-24T02:36:53;100722.29;;;16.16;62.71
77086;BME280;66014;53.134;18.006;2023-05-24T02:39:21;100725.23;;;16.15;62.75
77086;BME280;66014;53.134;18.006;2023-05-24T02:41:47;100726.30;;;16.14;62.99
77086;BME280;66014;53.134;18.006;2023-05-24T02:44:14;100723.40;;;16.13;62.87
77086;BME280;66014;53.134;18.006;2023-05-24T02:46:41;100726.14;;;16.13;63.08
77086;BME280;66014;53.134;18.006;2023-05-24T02:49:07;100731.96;;;16.12;63.13
77086;BME280;66014;53.134;18.006;2023-05-24T02:51:35;100729.12;;;16.11;63.16
77086;BME280;66014;53.134;18.006;2023-05-24T02:54:02;100729.77;;;16.11;63.30
77086;BME280;66014;53.134;18.006;2023-05-24T02:56:29;100730.27;;;16.13;63.52
77086;BME280;66014;53.134;18.006;2023-05-24T02:58:55;100731.80;;;16.12;63.80
77086;BME280;66014;53.134;18.006;2023-05-24T03:01:22;100729.35;;;16.13;63.91
77086;BME280;66014;53.134;18.006;2023-05-24T03:03:48;100731.79;;;16.15;64.11
77086;BME280;66014;53.134;18.006;2023-05-24T03:06:15;100730.85;;;16.15;64.25
77086;BME280;66014;53.134;18.006;2023-05-24T03:08:41;100732.38;;;16.14;64.44
77086;BME280;66014;53.134;18.006;2023-05-24T03:11:08;100732.70;;;16.12;64.54
77086;BME280;66014;53.134;18.006;2023-05-24T03:13:34;100732.59;;;16.12;64.72
77086;BME280;66014;53.134;18.006;2023-05-24T03:16:01;100731.60;;;16.11;65.02
77086;BME280;66014;53.134;18.006;2023-05-24T03:18:27;100734.16;;;16.12;65.30
77086;BME280;66014;53.134;18.006;2023-05-24T03:20:54;100734.73;;;16.11;65.52
77086;BME280;66014;53.134;18.006;2023-05-24T03:23:20;100733.84;;;16.10;65.79
77086;BME280;66014;53.134;18.006;2023-05-24T03:25:47;100740.23;;;16.08;65.97
77086;BME280;66014;53.134;18.006;2023-05-24T03:28:13;100743.67;;;16.05;66.17
77086;BME280;66014;53.134;18.006;2023-05-24T03:30:41;100748.55;;;16.04;66.28
77086;BME280;66014;53.134;18.006;2023-05-24T03:33:07;100751.86;;;16.02;66.47
77086;BME280;66014;53.134;18.006;2023-05-24T03:35:33;100759.42;;;16.00;66.73
77086;BME280;66014;53.134;18.006;2023-05-24T03:38:00;100764.44;;;15.99;66.93
77086;BME280;66014;53.134;18.006;2023-05-24T03:40:26;100762.98;;;15.98;67.10
77086;BME280;66014;53.134;18.006;2023-05-24T03:42:58;100761.38;;;15.95;67.25
77086;BME280;66014;53.134;18.006;2023-05-24T03:45:24;100761.02;;;15.90;67.46
77086;BME280;66014;53.134;18.006;2023-05-24T03:47:51;100763.83;;;15.85;67.50
77086;BME280;66014;53.134;18.006;2023-05-24T03:50:17;100762.05;;;15.84;67.87
77086;BME280;66014;53.134;18.006;2023-05-24T03:52:44;100759.95;;;15.85;68.00
77086;BME280;66014;53.134;18.006;2023-05-24T03:55:12;100758.91;;;15.86;68.17
77086;BME280;66014;53.134;18.006;2023-05-24T03:57:40;100766.35;;;15.85;68.14
77086;BME280;66014;53.134;18.006;2023-05-24T04:00:08;100768.61;;;15.84;68.14
77086;BME280;66014;53.134;18.006;2023-05-24T04:02:36;100774.29;;;15.84;68.33
77086;BME280;66014;53.134;18.006;2023-05-24T04:05:04;100772.38;;;15.82;68.35
77086;BME280;66014;53.134;18.006;2023-05-24T04:07:36;100770.77;;;15.79;68.43
77086;BME280;66014;53.134;18.006;2023-05-24T04:10:04;100774.86;;;15.75;68.49
77086;BME280;66014;53.134;18.006;2023-05-24T04:12:30;100776.92;;;15.73;68.75
77086;BME280;66014;53.134;18.006;2023-05-24T04:14:58;100785.90;;;15.71;68.71
77086;BME280;66014;53.134;18.006;2023-05-24T04:17:26;100784.53;;;15.70;68.77
77086;BME280;66014;53.134;18.006;2023-05-24T04:19:52;100776.44;;;15.69;68.83
77086;BME280;66014;53.134;18.006;2023-05-24T04:22:19;100786.05;;;15.68;69.08
77086;BME280;66014;53.134;18.006;2023-05-24T04:24:45;100788.83;;;15.68;69.36
77086;BME280;66014;53.134;18.006;2023-05-24T04:27:12;100794.65;;;15.67;69.87
77086;BME280;66014;53.134;18.006;2023-05-24T04:29:39;100809.55;;;15.65;70.15
77086;BME280;66014;53.134;18.006;2023-05-24T04:32:06;100817.71;;;15.60;70.22
77086;BME280;66014;53.134;18.006;2023-05-24T04:34:35;100809.88;;;15.48;70.66
77086;BME280;66014;53.134;18.006;2023-05-24T04:37:02;100803.30;;;15.37;70.66
77086;BME280;66014;53.134;18.006;2023-05-24T04:39:29;100803.88;;;15.32;70.69
77086;BME280;66014;53.134;18.006;2023-05-24T04:41:56;100809.09;;;15.29;71.03
77086;BME280;66014;53.134;18.006;2023-05-24T04:44:23;100812.30;;;15.28;70.96
77086;BME280;66014;53.134;18.006;2023-05-24T04:46:50;100812.69;;;15.25;71.21
77086;BME280;66014;53.134;18.006;2023-05-24T04:49:16;100819.20;;;15.23;71.20
77086;BME280;66014;53.134;18.006;2023-05-24T04:51:43;100826.74;;;15.23;71.45
77086;BME280;66014;53.134;18.006;2023-05-24T04:54:09;100829.67;;;15.23;71.68
77086;BME280;66014;53.134;18.006;2023-05-24T04:56:36;100830.27;;;15.24;71.53
77086;BME280;66014;53.134;18.006;2023-05-24T04:59:04;100832.52;;;15.23;71.53
77086;BME280;66014;53.134;18.006;2023-05-24T05:01:31;100838.42;;;15.22;71.52
77086;BME280;66014;53.134;18.006;2023-05-24T05:03:58;100844.36;;;15.22;71.51
77086;BME280;66014;53.134;18.006;2023-05-24T05:06:25;100846.16;;;15.20;71.30
77086;BME280;66014;53.134;18.006;2023-05-24T05:08:51;100846.27;;;15.22;71.39
77086;BME280;66014;53.134;18.006;2023-05-24T05:11:18;100843.16;;;15.24;71.44
77086;BME280;66014;53.134;18.006;2023-05-24T05:13:45;100847.95;;;15.23;71.55
77086;BME280;66014;53.134;18.006;2023-05-24T05:16:12;100848.20;;;15.23;71.60
77086;BME280;66014;53.134;18.006;2023-05-24T05:18:39;100847.70;;;15.24;71.71
77086;BME280;66014;53.134;18.006;2023-05-24T05:21:06;100854.27;;;15.23;71.65
77086;BME280;66014;53.134;18.006;2023-05-24T05:23:33;100859.14;;;15.26;71.81
77086;BME280;66014;53.134;18.006;2023-05-24T05:26:01;100857.09;;;15.30;71.68
77086;BME280;66014;53.134;18.006;2023-05-24T05:28:29;100866.18;;;15.32;71.54
77086;BME280;66014;53.134;18.006;2023-05-24T05:30:55;100872.89;;;15.35;71.48
77086;BME280;66014;53.134;18.006;2023-05-24T05:33:22;100873.10;;;15.36;71.29
77086;BME280;66014;53.134;18.006;2023-05-24T05:35:48;100873.52;;;15.38;71.33
77086;BME280;66014;53.134;18.006;2023-05-24T05:38:15;100875.10;;;15.41;71.18
77086;BME280;66014;53.134;18.006;2023-05-24T05:40:42;100877.14;;;15.47;71.02
77086;BME280;66014;53.134;18.006;2023-05-24T05:43:09;100884.46;;;15.54;70.88
77086;BME280;66014;53.134;18.006;2023-05-24T05:45:36;100886.61;;;15.59;70.63
77086;BME280;66014;53.134;18.006;2023-05-24T05:48:03;100884.67;;;15.61;70.59
77086;BME280;66014;53.134;18.006;2023-05-24T05:50:30;100885.79;;;15.63;70.57
77086;BME280;66014;53.134;18.006;2023-05-24T05:52:56;100890.45;;;15.67;70.60
77086;BME280;66014;53.134;18.006;2023-05-24T05:55:23;100890.48;;;15.72;70.61
77086;BME280;66014;53.134;18.006;2023-05-24T05:57:50;100899.36;;;15.81;70.48
77086;BME280;66014;53.134;18.006;2023-05-24T06:00:17;100901.97;;;15.86;70.09
77086;BME280;66014;53.134;18.006;2023-05-24T06:02:45;100901.23;;;15.91;70.20
77086;BME280;66014;53.134;18.006;2023-05-24T06:05:11;100906.00;;;15.94;70.09
77086;BME280;66014;53.134;18.006;2023-05-24T06:07:38;100909.54;;;15.94;69.87
77086;BME280;66014;53.134;18.006;2023-05-24T06:10:05;100916.46;;;15.92;69.88
77086;BME280;66014;53.134;18.006;2023-05-24T06:12:32;100920.36;;;15.95;69.98
77086;BME280;66014;53.134;18.006;2023-05-24T06:14:59;100921.06;;;16.01;69.85
77086;BME280;66014;53.134;18.006;2023-05-24T06:17:26;100926.08;;;16.04;69.62
77086;BME280;66014;53.134;18.006;2023-05-24T06:19:53;100927.96;;;16.02;69.62
77086;BME280;66014;53.134;18.006;2023-05-24T06:22:21;100934.94;;;15.97;69.65
77086;BME280;66014;53.134;18.006;2023-05-24T06:24:48;100945.42;;;15.91;69.74
77086;BME280;66014;53.134;18.006;2023-05-24T06:27:14;100949.83;;;15.85;69.76
77086;BME280;66014;53.134;18.006;2023-05-24T06:29:41;100955.11;;;15.80;69.87
77086;BME280;66014;53.134;18.006;2023-05-24T06:32:11;100953.21;;;15.77;69.80
77086;BME280;66014;53.134;18.006;2023-05-24T06:34:38;100956.83;;;15.71;69.69
77086;BME280;66014;53.134;18.006;2023-05-24T06:37:05;100959.80;;;15.65;69.83
77086;BME280;66014;53.134;18.006;2023-05-24T06:39:35;100965.14;;;15.61;69.76
77086;BME280;66014;53.134;18.006;2023-05-24T06:42:03;100965.38;;;15.60;69.91
77086;BME280;66014;53.134;18.006;2023-05-24T06:44:29;100964.30;;;15.60;70.13
77086;BME280;66014;53.134;18.006;2023-05-24T06:47:00;100969.84;;;15.58;70.17
77086;BME280;66014;53.134;18.006;2023-05-24T06:49:27;100966.45;;;15.58;70.31
77086;BME280;66014;53.134;18.006;2023-05-24T06:51:54;100976.48;;;15.58;70.28
77086;BME280;66014;53.134;18.006;2023-05-24T06:54:21;100984.07;;;15.58;70.46
77086;BME280;66014;53.134;18.006;2023-05-24T06:56:47;100988.75;;;15.59;70.76
77086;BME280;66014;53.134;18.006;2023-05-24T06:59:15;100991.43;;;15.60;70.79
77086;BME280;66014;53.134;18.006;2023-05-24T07:01:42;100997.80;;;15.62;70.65
77086;BME280;66014;53.134;18.006;2023-05-24T07:04:09;100999.98;;;15.64;70.64
77086;BME280;66014;53.134;18.006;2023-05-24T07:06:36;101004.95;;;15.65;70.66
77086;BME280;66014;53.134;18.006;2023-05-24T07:09:05;101006.39;;;15.63;70.79
77086;BME280;66014;53.134;18.006;2023-05-24T07:11:32;101007.02;;;15.65;70.80
77086;BME280;66014;53.134;18.006;2023-05-24T07:13:58;101012.23;;;15.71;70.73
77086;BME280;66014;53.134;18.006;2023-05-24T07:16:25;101018.74;;;15.77;70.67
77086;BME280;66014;53.134;18.006;2023-05-24T07:18:53;101018.80;;;15.82;70.56
77086;BME280;66014;53.134;18.006;2023-05-24T07:21:20;101026.91;;;15.87;70.42
77086;BME280;66014;53.134;18.006;2023-05-24T07:23:51;101029.44;;;15.91;70.41
77086;BME280;66014;53.134;18.006;2023-05-24T07:26:18;101028.45;;;15.96;70.29
77086;BME280;66014;53.134;18.006;2023-05-24T07:28:46;101025.54;;;15.99;70.18
77086;BME280;66014;53.134;18.006;2023-05-24T07:31:13;101035.30;;;16.03;70.02
77086;BME280;66014;53.134;18.006;2023-05-24T07:33:39;101037.08;;;16.08;70.15
77086;BME280;66014;53.134;18.006;2023-05-24T07:36:07;101038.70;;;16.16;70.36
77086;BME280;66014;53.134;18.006;2023-05-24T07:38:34;101044.14;;;16.22;70.46
77086;BME280;66014;53.134;18.006;2023-05-24T07:41:02;101048.45;;;16.28;70.72
77086;BME280;66014;53.134;18.006;2023-05-24T07:43:29;101051.05;;;16.30;70.27
77086;BME280;66014;53.134;18.006;2023-05-24T07:45:56;101058.16;;;16.32;70.13
77086;BME280;66014;53.134;18.006;2023-05-24T07:48:23;101061.48;;;16.34;70.36
77086;BME280;66014;53.134;18.006;2023-05-24T07:50:49;101066.84;;;16.41;70.47
77086;BME280;66014;53.134;18.006;2023-05-24T07:53:18;101071.86;;;16.51;69.91
77086;BME280;66014;53.134;18.006;2023-05-24T07:55:45;101070.75;;;16.63;69.77
77086;BME280;66014;53.134;18.006;2023-05-24T07:58:11;101069.94;;;16.77;69.70
77086;BME280;66014;53.134;18.006;2023-05-24T08:00:38;101071.63;;;16.91;69.22
77086;BME280;66014;53.134;18.006;2023-05-24T08:03:05;101072.19;;;17.05;69.08
77086;BME280;66014;53.134;18.006;2023-05-24T08:05:31;101076.10;;;17.18;68.85
77086;BME280;66014;53.134;18.006;2023-05-24T08:07:58;101081.18;;;17.28;68.13
77086;BME280;66014;53.134;18.006;2023-05-24T08:10:24;101080.89;;;17.34;68.10
77086;BME280;66014;53.134;18.006;2023-05-24T08:12:51;101083.86;;;17.43;68.29
77086;BME280;66014;53.134;18.006;2023-05-24T08:15:20;101086.67;;;17.58;67.95
77086;BME280;66014;53.134;18.006;2023-05-24T08:17:47;101087.83;;;17.65;67.39
77086;BME280;66014;53.134;18.006;2023-05-24T08:20:14;101089.99;;;17.73;67.15
77086;BME280;66014;53.134;18.006;2023-05-24T08:22:41;101092.91;;;17.78;66.59
77086;BME280;66014;53.134;18.006;2023-05-24T08:25:09;101097.29;;;17.83;66.61
77086;BME280;66014;53.134;18.006;2023-05-24T08:27:36;101097.67;;;17.91;66.13
77086;BME280;66014;53.134;18.006;2023-05-24T08:30:05;101099.73;;;18.00;66.11
77086;BME280;66014;53.134;18.006;2023-05-24T08:32:33;101103.33;;;18.05;65.64
77086;BME280;66014;53.134;18.006;2023-05-24T08:34:59;101103.77;;;18.08;65.71
77086;BME280;66014;53.134;18.006;2023-05-24T08:37:25;101108.83;;;18.15;65.33
77086;BME280;66014;53.134;18.006;2023-05-24T08:39:53;101112.55;;;18.25;65.01
77086;BME280;66014;53.134;18.006;2023-05-24T08:42:20;101114.80;;;18.32;64.63
77086;BME280;66014;53.134;18.006;2023-05-24T08:44:51;101116.08;;;18.35;64.50
77086;BME280;66014;53.134;18.006;2023-05-24T08:47:21;101119.36;;;18.42;63.86
77086;BME280;66014;53.134;18.006;2023-05-24T08:49:50;101122.85;;;18.47;63.73
77086;BME280;66014;53.134;18.006;2023-05-24T08:52:17;101124.40;;;18.46;63.50
77086;BME280;66014;53.134;18.006;2023-05-24T08:54:48;101126.41;;;18.48;63.14
77086;BME280;66014;53.134;18.006;2023-05-24T08:57:16;101127.41;;;18.66;63.30
77086;BME280;66014;53.134;18.006;2023-05-24T08:59:43;101130.67;;;19.08;62.67
77086;BME280;66014;53.134;18.006;2023-05-24T09:02:12;101129.94;;;19.84;61.54
77086;BME280;66014;53.134;18.006;2023-05-24T09:04:40;101134.95;;;21.05;59.78
77086;BME280;66014;53.134;18.006;2023-05-24T09:07:11;101130.15;;;21.94;58.41
77086;BME280;66014;53.134;18.006;2023-05-24T09:09:41;101129.96;;;22.19;57.10
77086;BME280;66014;53.134;18.006;2023-05-24T09:12:15;101130.94;;;22.05;56.84
77086;BME280;66014;53.134;18.006;2023-05-24T09:14:46;101135.67;;;21.81;56.45
77086;BME280;66014;53.134;18.006;2023-05-24T09:17:13;101139.83;;;21.52;56.78
77086;BME280;66014;53.134;18.006;2023-05-24T09:19:45;101143.55;;;21.31;56.88
77086;BME280;66014;53.134;18.006;2023-05-24T09:22:12;101146.43;;;21.13;56.29
77086;BME280;66014;53.134;18.006;2023-05-24T09:24:43;101150.15;;;20.91;56.38
77086;BME280;66014;53.134;18.006;2023-05-24T09:27:16;101149.50;;;20.79;56.83
77086;BME280;66014;53.134;18.006;2023-05-24T09:29:43;101149.74;;;20.74;56.79
77086;BME280;66014;53.134;18.006;2023-05-24T09:32:14;101153.19;;;20.75;56.53
77086;BME280;66014;53.134;18.006;2023-05-24T09:34:41;101153.16;;;20.71;56.55
77086;BME280;66014;53.134;18.006;2023-05-24T09:39:43;101156.52;;;20.55;56.64
77086;BME280;66014;53.134;18.006;2023-05-24T09:42:17;101157.65;;;20.52;56.43
77086;BME280;66014;53.134;18.006;2023-05-24T09:45:03;101159.08;;;20.59;56.40
77086;BME280;66014;53.134;18.006;2023-05-24T09:47:41;101162.61;;;20.74;56.26
77086;BME280;66014;53.134;18.006;2023-05-24T09:50:17;101160.81;;;20.74;56.22
77086;BME280;66014;53.134;18.006;2023-05-24T09:52:43;101160.73;;;20.65;56.26
77086;BME280;66014;53.134;18.006;2023-05-24T09:55:17;101164.27;;;20.48;55.92
77086;BME280;66014;53.134;18.006;2023-05-24T09:57:50;101167.65;;;20.11;56.20
77086;BME280;66014;53.134;18.006;2023-05-24T10:00:23;101171.52;;;19.74;56.76
77086;BME280;66014;53.134;18.006;2023-05-24T10:03:01;101174.58;;;19.46;57.39
77086;BME280;66014;53.134;18.006;2023-05-24T10:05:29;101172.27;;;19.30;57.89
77086;BME280;66014;53.134;18.006;2023-05-24T10:07:59;101169.67;;;19.22;58.04
77086;BME280;66014;53.134;18.006;2023-05-24T10:10:28;101173.30;;;19.18;58.08
77086;BME280;66014;53.134;18.006;2023-05-24T10:12:57;101177.23;;;19.20;58.01
77086;BME280;66014;53.134;18.006;2023-05-24T10:15:25;101179.11;;;19.36;57.89
77086;BME280;66014;53.134;18.006;2023-05-24T10:17:54;101172.29;;;19.91;57.03
77086;BME280;66014;53.134;18.006;2023-05-24T10:20:25;101176.19;;;20.82;55.79
77086;BME280;66014;53.134;18.006;2023-05-24T10:22:56;101175.60;;;21.85;54.58
77086;BME280;66014;53.134;18.006;2023-05-24T10:25:26;101180.38;;;23.05;52.83
77086;BME280;66014;53.134;18.006;2023-05-24T10:27:59;101183.29;;;23.46;51.72
77086;BME280;66014;53.134;18.006;2023-05-24T10:33:00;101188.79;;;24.55;49.63
77086;BME280;66014;53.134;18.006;2023-05-24T10:35:28;101190.38;;;26.67;47.32
77086;BME280;66014;53.134;18.006;2023-05-24T10:37:56;101195.61;;;28.56;43.43
77086;BME280;66014;53.134;18.006;2023-05-24T10:40:24;101197.42;;;29.61;41.01
77086;BME280;66014;53.134;18.006;2023-05-24T10:42:51;101191.15;;;30.68;39.97
77086;BME280;66014;53.134;18.006;2023-05-24T10:47:53;101193.48;;;31.57;37.35
77086;BME280;66014;53.134;18.006;2023-05-24T10:50:22;101196.33;;;32.20;34.62
77086;BME280;66014;53.134;18.006;2023-05-24T10:52:49;101196.02;;;31.66;35.60
77086;BME280;66014;53.134;18.006;2023-05-24T10:55:18;101193.80;;;31.88;35.40
77086;BME280;66014;53.134;18.006;2023-05-24T10:57:45;101195.23;;;32.55;32.91
77086;BME280;66014;53.134;18.006;2023-05-24T11:03:01;101194.70;;;32.77;33.40
77086;BME280;66014;53.134;18.006;2023-05-24T11:08:11;101193.34;;;34.40;30.76
77086;BME280;66014;53.134;18.006;2023-05-24T11:10:38;101187.86;;;35.19;29.55
77086;BME280;66014;53.134;18.006;2023-05-24T11:13:07;101188.61;;;34.77;29.43
77086;BME280;66014;53.134;18.006;2023-05-24T11:15:34;101192.20;;;33.50;29.63
77086;BME280;66014;53.134;18.006;2023-05-24T11:20:43;101179.71;;;31.32;31.49
77086;BME280;66014;53.134;18.006;2023-05-24T11:23:14;101180.68;;;31.47;31.72
77086;BME280;66014;53.134;18.006;2023-05-24T11:25:41;101181.83;;;31.90;31.57
77086;BME280;66014;53.134;18.006;2023-05-24T11:28:09;101189.62;;;32.80;30.35
77086;BME280;66014;53.134;18.006;2023-05-24T11:30:44;101192.18;;;33.47;30.09
77086;BME280;66014;53.134;18.006;2023-05-24T11:33:18;101196.58;;;33.95;29.20
77086;BME280;66014;53.134;18.006;2023-05-24T11:35:46;101198.58;;;34.38;28.91
77086;BME280;66014;53.134;18.006;2023-05-24T11:38:14;101195.32;;;34.64;28.66
77086;BME280;66014;53.134;18.006;2023-05-24T11:40:42;101197.73;;;35.00;27.59
77086;BME280;66014;53.134;18.006;2023-05-24T11:43:17;101198.39;;;34.68;27.97
77086;BME280;66014;53.134;18.006;2023-05-24T11:45:47;101200.42;;;35.03;27.41
77086;BME280;66014;53.134;18.006;2023-05-24T11:48:14;101199.81;;;33.90;27.69
77086;BME280;66014;53.134;18.006;2023-05-24T11:50:44;101195.14;;;32.39;29.01
77086;BME280;66014;53.134;18.006;2023-05-24T11:53:13;101190.45;;;31.07;30.36
77086;BME280;66014;53.134;18.006;2023-05-24T11:55:41;101196.11;;;29.92;31.87
77086;BME280;66014;53.134;18.006;2023-05-24T11:58:21;101198.89;;;29.15;32.81
77086;BME280;66014;53.134;18.006;2023-05-24T12:00:49;101196.83;;;28.47;34.09
77086;BME280;66014;53.134;18.006;2023-05-24T12:03:16;101193.92;;;27.87;34.94
77086;BME280;66014;53.134;18.006;2023-05-24T12:05:43;101193.04;;;28.60;34.36
77086;BME280;66014;53.134;18.006;2023-05-24T12:08:11;101192.89;;;29.52;33.54
77086;BME280;66014;53.134;18.006;2023-05-24T12:10:41;101192.67;;;29.71;33.59
77086;BME280;66014;53.134;18.006;2023-05-24T12:13:21;101185.81;;;30.22;33.12
77086;BME280;66014;53.134;18.006;2023-05-24T12:15:50;101188.48;;;31.42;32.03
77086;BME280;66014;53.134;18.006;2023-05-24T12:18:21;101192.38;;;32.08;30.40
77086;BME280;66014;53.134;18.006;2023-05-24T12:20:49;101195.67;;;32.19;29.65
77086;BME280;66014;53.134;18.006;2023-05-24T12:23:19;101193.88;;;31.54;30.88
77086;BME280;66014;53.134;18.006;2023-05-24T12:25:46;101192.38;;;31.62;30.55
77086;BME280;66014;53.134;18.006;2023-05-24T12:28:13;101191.80;;;30.95;31.23
77086;BME280;66014;53.134;18.006;2023-05-24T12:30:40;101193.05;;;30.38;31.88
77086;BME280;66014;53.134;18.006;2023-05-24T12:33:10;101196.98;;;30.14;32.37
77086;BME280;66014;53.134;18.006;2023-05-24T12:35:39;101196.35;;;29.85;32.70
77086;BME280;66014;53.134;18.006;2023-05-24T12:38:08;101194.45;;;29.31;33.26
77086;BME280;66014;53.134;18.006;2023-05-24T12:40:36;101195.61;;;28.80;34.11
77086;BME280;66014;53.134;18.006;2023-05-24T12:43:03;101194.21;;;28.15;35.12
77086;BME280;66014;53.134;18.006;2023-05-24T12:45:30;101194.95;;;27.49;35.84
77086;BME280;66014;53.134;18.006;2023-05-24T12:47:58;101188.27;;;27.05;36.78
77086;BME280;66014;53.134;18.006;2023-05-24T12:50:26;101189.54;;;26.80;37.12
77086;BME280;66014;53.134;18.006;2023-05-24T12:52:53;101193.84;;;26.42;38.05
77086;BME280;66014;53.134;18.006;2023-05-24T12:55:24;101192.20;;;26.06;38.23
77086;BME280;66014;53.134;18.006;2023-05-24T12:57:53;101191.33;;;25.89;38.60
77086;BME280;66014;53.134;18.006;2023-05-24T13:00:20;101195.44;;;25.66;39.25
77086;BME280;66014;53.134;18.006;2023-05-24T13:02:48;101195.66;;;25.32;39.79
77086;BME280;66014;53.134;18.006;2023-05-24T13:05:18;101197.27;;;25.02;40.69
77086;BME280;66014;53.134;18.006;2023-05-24T13:07:44;101195.11;;;24.81;41.21
77086;BME280;66014;53.134;18.006;2023-05-24T13:10:11;101197.39;;;24.70;41.29
77086;BME280;66014;53.134;18.006;2023-05-24T13:12:38;101196.66;;;24.49;41.85